createdAt,value
2022-08-26T00:00:35.321Z,16.27
2022-08-26T00:03:39.244Z,18.70
2022-08-26T00:06:42.630Z,23.40
2022-08-26T00:09:49.962Z,21.80
2022-08-26T00:12:52.882Z,17.13
2022-08-26T00:15:54.932Z,16.53
2022-08-26T00:18:59.177Z,18.83
2022-08-26T00:22:00.885Z,27.07
2022-08-26T00:25:03.341Z,19.30
2022-08-26T00:28:06.756Z,18.07
2022-08-26T00:31:12.047Z,16.87
2022-08-26T00:34:15.234Z,16.60
2022-08-26T00:37:17.172Z,16.90
2022-08-26T00:40:32.892Z,17.77
2022-08-26T00:43:47.324Z,18.80
2022-08-26T00:46:53.941Z,23.70
2022-08-26T00:49:56.648Z,21.23
2022-08-26T00:53:01.588Z,20.80
2022-08-26T00:56:31.709Z,17.40
2022-08-26T00:59:33.558Z,25.67
2022-08-26T01:02:35.963Z,14.07
2022-08-26T01:05:41.924Z,19.23
2022-08-26T01:08:44.655Z,20.13
2022-08-26T01:11:49.432Z,21.97
2022-08-26T01:14:51.645Z,18.53
2022-08-26T01:17:53.983Z,22.90
2022-08-26T01:20:57.787Z,18.60
2022-08-26T01:23:59.982Z,15.83
2022-08-26T01:27:05.116Z,20.23
2022-08-26T01:30:07.499Z,21.37
2022-08-26T01:33:15.816Z,17.13
2022-08-26T01:36:18.056Z,23.00
2022-08-26T01:39:22.497Z,24.93
2022-08-26T01:42:25.881Z,15.83
2022-08-26T01:45:30.602Z,15.63
2022-08-26T01:48:35.273Z,16.80
2022-08-26T01:51:40.260Z,21.70
2022-08-26T01:54:42.522Z,20.80
2022-08-26T01:57:51.992Z,22.23
2022-08-26T02:01:01.456Z,15.97
2022-08-26T02:04:27.127Z,19.80
2022-08-26T02:07:29.334Z,20.20
2022-08-26T02:10:31.143Z,17.10
2022-08-26T02:13:37.723Z,19.87
2022-08-26T02:16:43.278Z,22.87
2022-08-26T02:19:48.481Z,22.80
2022-08-26T02:22:50.179Z,15.20
2022-08-26T02:26:08.404Z,20.67
2022-08-26T02:29:35.477Z,18.63
2022-08-26T02:32:37.721Z,19.73
2022-08-26T02:35:41.997Z,18.60
2022-08-26T02:38:43.667Z,23.10
2022-08-26T02:41:47.873Z,18.77
2022-08-26T02:44:50.129Z,18.37
2022-08-26T02:47:52.540Z,21.10
2022-08-26T02:50:55.082Z,23.27
2022-08-26T02:53:57.140Z,21.40
2022-08-26T02:56:59.182Z,17.47
2022-08-26T03:00:01.926Z,19.80
2022-08-26T03:03:05.081Z,24.60
2022-08-26T03:06:06.880Z,27.10
2022-08-26T03:09:10.376Z,21.13
2022-08-26T03:12:20.354Z,24.57
2022-08-26T03:15:22.071Z,21.20
2022-08-26T03:18:23.732Z,21.87
2022-08-26T03:21:25.634Z,21.20
2022-08-26T03:24:27.311Z,22.80
2022-08-26T03:27:29.030Z,22.53
2022-08-26T03:30:45.449Z,21.77
2022-08-26T03:33:48.034Z,24.63
2022-08-26T03:36:51.236Z,23.13
2022-08-26T03:39:52.987Z,20.57
2022-08-26T03:42:55.515Z,21.77
2022-08-26T03:45:57.205Z,32.10
2022-08-26T03:49:00.307Z,24.07
2022-08-26T03:52:03.938Z,21.53
2022-08-26T03:55:07.568Z,19.80
2022-08-26T03:58:09.217Z,21.20
2022-08-26T04:01:12.457Z,20.70
2022-08-26T04:04:15.665Z,23.53
2022-08-26T04:07:17.949Z,28.43
2022-08-26T04:10:29.019Z,34.73
2022-08-26T04:13:31.755Z,26.20
2022-08-26T04:16:34.099Z,23.17
2022-08-26T04:19:36.808Z,24.33
2022-08-26T04:22:38.479Z,23.47
2022-08-26T04:25:40.611Z,25.07
2022-08-26T04:28:42.297Z,25.33
2022-08-26T04:31:44.380Z,20.33
2022-08-26T04:34:46.016Z,24.13
2022-08-26T04:37:49.316Z,22.27
2022-08-26T04:40:50.973Z,23.60
2022-08-26T04:43:53.440Z,24.57
2022-08-26T04:46:56.464Z,25.00
2022-08-26T04:49:58.184Z,23.23
2022-08-26T04:53:00.162Z,24.50
2022-08-26T04:56:03.205Z,25.90
2022-08-26T04:59:16.801Z,21.77
2022-08-26T05:02:19.308Z,28.53
2022-08-26T05:05:21.051Z,27.90
2022-08-26T05:08:24.216Z,29.60
2022-08-26T05:11:26.542Z,24.97
2022-08-26T05:14:28.443Z,23.90
2022-08-26T05:17:30.184Z,22.53
2022-08-26T05:20:35.099Z,29.80
2022-08-26T05:23:37.038Z,27.77
2022-08-26T05:26:39.126Z,24.40
2022-08-26T05:29:41.195Z,27.57
2022-08-26T05:32:43.378Z,28.03
2022-08-26T05:35:46.013Z,29.53
2022-08-26T05:38:48.663Z,22.30
2022-08-26T05:41:50.693Z,30.63
2022-08-26T05:44:54.111Z,24.90
2022-08-26T05:47:57.904Z,21.17
2022-08-26T05:51:04.908Z,19.33
2022-08-26T05:54:10.503Z,19.90
2022-08-26T05:57:13.760Z,25.90
2022-08-26T06:00:18.407Z,20.13
2022-08-26T06:03:20.066Z,20.03
2022-08-26T06:06:27.581Z,23.70
2022-08-26T06:09:31.419Z,25.27
2022-08-26T06:12:34.298Z,19.50
2022-08-26T06:15:42.007Z,20.57
2022-08-26T06:18:45.932Z,19.27
2022-08-26T06:21:54.097Z,17.37
2022-08-26T06:25:15.076Z,20.30
2022-08-26T06:28:17.265Z,23.60
2022-08-26T06:31:19.761Z,21.60
2022-08-26T06:34:23.210Z,21.90
2022-08-26T06:37:28.389Z,19.47
2022-08-26T06:40:31.116Z,15.23
2022-08-26T06:43:33.144Z,22.93
2022-08-26T06:46:35.317Z,19.00
2022-08-26T06:49:37.256Z,15.50
2022-08-26T06:52:42.478Z,14.27
2022-08-26T06:55:46.119Z,22.37
2022-08-26T06:58:48.360Z,12.03
2022-08-26T07:01:50.453Z,24.63
2022-08-26T07:04:52.522Z,15.50
2022-08-26T07:07:58.657Z,18.93
2022-08-26T07:11:25.021Z,20.23
2022-08-26T07:14:27.457Z,21.27
2022-08-26T07:17:29.338Z,19.23
2022-08-26T07:20:31.409Z,18.27
2022-08-26T07:23:34.537Z,19.80
2022-08-26T07:26:36.226Z,22.60
2022-08-26T07:29:41.743Z,22.50
2022-08-26T07:32:43.454Z,22.00
2022-08-26T07:35:45.446Z,22.40
2022-08-26T07:38:48.200Z,18.20
2022-08-26T07:41:51.033Z,17.10
2022-08-26T07:44:52.756Z,15.75
2022-08-26T07:47:54.736Z,18.45
2022-08-26T07:50:56.815Z,16.92
2022-08-26T07:53:59.589Z,15.02
2022-08-26T07:57:01.538Z,17.25
2022-08-26T08:00:10.039Z,18.30
2022-08-26T08:03:12.161Z,21.15
2022-08-26T08:06:15.813Z,19.08
2022-08-26T08:09:24.098Z,19.70
2022-08-26T08:12:26.240Z,18.52
2022-08-26T08:15:43.452Z,18.05
2022-08-26T08:18:45.692Z,17.15
2022-08-26T08:21:47.964Z,19.52
2022-08-26T08:24:53.070Z,16.75
2022-08-26T08:27:57.036Z,13.50
2022-08-26T08:30:59.069Z,16.00
2022-08-26T08:34:01.804Z,17.23
2022-08-26T08:37:10.845Z,17.92
2022-08-26T08:40:18.087Z,17.70
2022-08-26T08:43:47.319Z,21.98
2022-08-26T08:46:53.019Z,14.10
2022-08-26T08:49:58.630Z,10.48
2022-08-26T08:53:11.332Z,16.55
2022-08-26T08:56:35.845Z,14.65
2022-08-26T08:59:53.217Z,14.82
2022-08-26T09:03:09.916Z,18.58
2022-08-26T09:06:17.364Z,19.27
2022-08-26T09:09:43.827Z,15.40
2022-08-26T09:12:48.103Z,14.25
2022-08-26T09:16:02.148Z,13.93
2022-08-26T09:19:25.620Z,14.07
2022-08-26T09:22:33.197Z,13.90
2022-08-26T09:26:04.911Z,15.10
2022-08-26T09:32:25.384Z,14.15
2022-08-26T09:35:34.000Z,15.57
2022-08-26T09:38:35.909Z,15.57
2022-08-26T09:41:37.950Z,16.77
2022-08-26T09:45:02.883Z,16.27
2022-08-26T09:48:06.477Z,19.63
2022-08-26T09:51:23.366Z,17.45
2022-08-26T09:54:30.482Z,17.63
2022-08-26T09:57:36.452Z,14.55
2022-08-26T10:00:55.630Z,12.48
2022-08-26T10:04:14.009Z,17.55
2022-08-26T10:07:42.090Z,16.30
2022-08-26T10:10:45.306Z,16.80
2022-08-26T10:14:04.211Z,16.10
2022-08-26T10:17:12.022Z,15.30
2022-08-26T10:20:26.407Z,12.27
2022-08-26T10:23:31.052Z,15.48
2022-08-26T10:26:53.285Z,16.90
2022-08-26T10:30:06.414Z,17.40
2022-08-26T10:33:12.297Z,12.23
2022-08-26T10:36:47.183Z,13.05
2022-08-26T10:40:12.810Z,11.38
2022-08-26T10:43:21.416Z,15.90
2022-08-26T10:46:28.402Z,17.42
2022-08-26T10:49:30.156Z,16.35
2022-08-26T10:53:04.975Z,16.48
2022-08-26T10:56:18.710Z,17.20
2022-08-26T10:59:30.329Z,12.25
2022-08-26T11:02:48.817Z,11.07
2022-08-26T11:06:24.274Z,17.25
2022-08-26T11:09:46.828Z,13.88
2022-08-26T11:12:49.913Z,17.85
2022-08-26T11:15:54.541Z,14.07
2022-08-26T11:18:56.264Z,18.27
2022-08-26T11:22:11.670Z,12.25
2022-08-26T11:25:15.928Z,10.30
2022-08-26T11:28:34.589Z,12.30
2022-08-26T11:31:53.483Z,11.00
2022-08-26T11:34:59.120Z,11.13
2022-08-26T11:38:29.698Z,9.75
2022-08-26T11:41:34.154Z,12.00
2022-08-26T11:44:40.614Z,11.55
2022-08-26T11:47:42.530Z,13.60
2022-08-26T11:51:19.187Z,10.48
2022-08-26T11:54:30.701Z,12.38
2022-08-26T11:57:46.932Z,12.02
2022-08-26T12:00:54.366Z,14.85
2022-08-26T12:04:01.285Z,10.57
2022-08-26T12:07:04.745Z,10.52
2022-08-26T12:10:24.193Z,9.10
2022-08-26T12:13:31.262Z,11.68
2022-08-26T12:16:38.735Z,9.95
2022-08-26T12:19:40.629Z,12.25
2022-08-26T12:22:43.691Z,8.70
2022-08-26T12:25:52.072Z,10.77
2022-08-26T12:28:57.528Z,11.30
2022-08-26T12:32:18.219Z,8.02
2022-08-26T12:35:21.359Z,11.52
2022-08-26T12:38:26.764Z,10.18
2022-08-26T12:41:58.196Z,6.40
2022-08-26T12:45:01.615Z,10.40
2022-08-26T12:48:09.893Z,11.75
2022-08-26T12:51:34.717Z,9.25
2022-08-26T12:54:57.052Z,12.65
2022-08-26T12:58:18.513Z,8.67
2022-08-26T13:01:22.368Z,8.32
2022-08-26T13:04:35.488Z,9.57
2022-08-26T13:07:39.661Z,6.80
2022-08-26T13:11:00.394Z,6.75
2022-08-26T13:14:10.095Z,7.28
2022-08-26T13:17:11.791Z,9.23
2022-08-26T13:20:13.443Z,9.65
2022-08-26T13:23:15.546Z,10.10
2022-08-26T13:26:18.115Z,17.67
2022-08-26T13:29:19.982Z,10.05
2022-08-26T13:32:24.765Z,11.27
2022-08-26T13:35:31.484Z,10.40
2022-08-26T13:38:34.078Z,8.55
2022-08-26T13:41:36.636Z,8.65
2022-08-26T13:44:39.045Z,10.82
2022-08-26T13:47:40.708Z,8.53
2022-08-26T13:51:33.584Z,8.48
2022-08-26T13:54:35.471Z,10.00
2022-08-26T13:57:37.172Z,11.07
2022-08-26T14:00:40.098Z,8.73
2022-08-26T14:03:42.297Z,18.80
2022-08-26T14:06:44.535Z,11.40
2022-08-26T14:09:47.113Z,9.23
2022-08-26T14:12:48.779Z,10.07
2022-08-26T14:15:51.171Z,9.83
2022-08-26T14:18:53.901Z,9.70
2022-08-26T14:21:56.528Z,8.20
2022-08-26T14:24:58.344Z,8.13
2022-08-26T14:28:00.826Z,9.13
2022-08-26T14:31:03.608Z,9.40
2022-08-26T14:34:07.837Z,8.10
2022-08-26T14:37:13.514Z,6.97
2022-08-26T14:40:18.693Z,8.10
2022-08-26T14:43:20.517Z,7.17
2022-08-26T14:46:22.291Z,6.90
2022-08-26T14:49:25.138Z,7.63
2022-08-26T14:52:26.860Z,7.00
2022-08-26T14:55:30.623Z,8.40
2022-08-26T14:58:35.134Z,7.37
2022-08-26T15:01:37.073Z,6.13
2022-08-26T15:04:40.400Z,8.17
2022-08-26T15:07:44.928Z,6.53
2022-08-26T15:10:46.572Z,7.30
2022-08-26T15:13:50.490Z,6.97
2022-08-26T15:17:01.514Z,7.73
2022-08-26T15:20:05.286Z,8.90
2022-08-26T15:23:07.348Z,9.17
2022-08-26T15:26:11.534Z,9.23
2022-08-26T15:29:13.637Z,7.97
2022-08-26T15:32:15.344Z,8.73
2022-08-26T15:35:17.093Z,14.90
2022-08-26T15:38:18.784Z,6.80
2022-08-26T15:41:20.601Z,9.90
2022-08-26T15:44:22.984Z,8.87
2022-08-26T15:47:24.864Z,10.10
2022-08-26T15:50:26.558Z,9.53
2022-08-26T15:53:31.716Z,8.80
2022-08-26T15:56:35.356Z,8.20
2022-08-26T15:59:37.088Z,8.90
2022-08-26T16:02:38.743Z,8.97
2022-08-26T16:05:43.430Z,6.50
2022-08-26T16:08:45.742Z,13.53
2022-08-26T16:12:05.893Z,8.27
2022-08-26T16:15:08.368Z,11.73
2022-08-26T16:18:10.311Z,8.00
2022-08-26T16:21:20.921Z,9.83
2022-08-26T16:24:27.147Z,8.53
2022-08-26T16:27:34.099Z,11.43
2022-08-26T16:30:35.832Z,11.40
2022-08-26T16:33:37.850Z,9.13
2022-08-26T16:36:40.248Z,7.80
2022-08-26T16:39:45.121Z,7.47
2022-08-26T16:42:46.989Z,9.13
2022-08-26T16:45:50.740Z,7.17
2022-08-26T16:48:53.951Z,10.93
2022-08-26T16:51:55.704Z,11.80
2022-08-26T16:55:00.293Z,10.60
2022-08-26T16:58:02.405Z,10.50
2022-08-26T17:01:04.059Z,12.70
2022-08-26T17:04:05.760Z,10.53
2022-08-26T17:07:07.520Z,11.77
2022-08-26T17:10:09.359Z,10.10
2022-08-26T17:13:11.166Z,10.10
2022-08-26T17:16:17.802Z,10.20
2022-08-26T17:19:20.740Z,11.07
2022-08-26T17:22:22.426Z,10.27
2022-08-26T17:25:25.729Z,10.13
2022-08-26T17:28:27.573Z,9.23
2022-08-26T17:31:29.368Z,12.47
2022-08-26T17:34:31.208Z,10.97
2022-08-26T17:37:39.153Z,10.07
2022-08-26T17:40:40.833Z,15.13
2022-08-26T17:43:45.649Z,13.77
2022-08-26T17:46:47.473Z,11.03
2022-08-26T17:49:49.808Z,13.40
2022-08-26T17:52:51.640Z,19.47
2022-08-26T17:55:53.309Z,12.53
2022-08-26T17:58:58.069Z,10.27
2022-08-26T18:02:05.153Z,13.07
2022-08-26T18:05:08.251Z,11.07
2022-08-26T18:08:10.212Z,9.97
2022-08-26T18:11:18.119Z,11.90
2022-08-26T18:14:19.816Z,9.80
2022-08-26T18:17:21.474Z,13.27
2022-08-26T18:20:23.168Z,11.53
2022-08-26T18:23:25.058Z,11.47
2022-08-26T18:26:39.525Z,10.23
2022-08-26T18:29:45.550Z,11.47
2022-08-26T18:32:48.729Z,10.80
2022-08-26T18:35:50.377Z,10.87
2022-08-26T18:38:53.176Z,11.43
2022-08-26T18:41:55.327Z,10.60
2022-08-26T18:44:58.981Z,10.47
2022-08-26T18:48:01.985Z,10.33
2022-08-26T18:51:04.760Z,14.90
2022-08-26T18:54:07.670Z,10.70
2022-08-26T18:57:09.817Z,9.20
2022-08-26T19:00:15.406Z,6.77
2022-08-26T19:03:18.847Z,7.47
2022-08-26T19:06:21.919Z,5.77
2022-08-26T19:09:26.241Z,7.00
2022-08-26T19:12:29.488Z,6.40
2022-08-26T19:15:38.037Z,6.83
2022-08-26T19:18:40.329Z,7.83
2022-08-26T19:21:45.169Z,6.10
2022-08-26T19:24:47.233Z,5.23
2022-08-26T19:27:49.357Z,6.23
2022-08-26T19:30:53.224Z,7.73
2022-08-26T19:33:56.601Z,5.93
2022-08-26T19:36:58.832Z,7.13
2022-08-26T19:40:00.982Z,5.43
2022-08-26T19:43:03.393Z,5.33
2022-08-26T19:46:17.402Z,5.67
2022-08-26T19:49:19.619Z,5.50
2022-08-26T19:52:22.525Z,6.70
2022-08-26T19:55:32.209Z,5.13
2022-08-26T19:58:34.730Z,5.27
2022-08-26T20:01:36.854Z,4.77
2022-08-26T20:04:39.614Z,7.47
2022-08-26T20:07:52.367Z,8.73
2022-08-26T20:10:54.483Z,6.40
2022-08-26T20:13:57.076Z,6.20
2022-08-26T20:17:02.948Z,9.27
2022-08-26T20:20:32.779Z,8.37
2022-08-26T20:23:36.433Z,7.73
2022-08-26T20:26:39.366Z,10.03
2022-08-26T20:29:42.978Z,9.80
2022-08-26T20:32:45.069Z,9.60
2022-08-26T20:35:47.237Z,10.80
2022-08-26T20:38:50.127Z,12.10
2022-08-26T20:41:52.199Z,14.73
2022-08-26T20:44:55.115Z,15.80
2022-08-26T20:48:00.049Z,18.87
2022-08-26T20:51:02.261Z,14.87
2022-08-26T20:54:05.466Z,20.50
2022-08-26T21:00:52.465Z,21.37
2022-08-26T21:03:57.023Z,20.90
2022-08-26T21:07:01.944Z,18.27
2022-08-26T21:10:04.144Z,21.87
2022-08-26T21:13:06.364Z,18.83
2022-08-26T21:16:08.723Z,20.10
